sensor_id;sensor_type;location;lat;lon;timestamp;P1;durP1;ratioP1;P2;durP2;ratioP2
23722;SDS011;12042;52.136;5.584;2023-03-08T06:44:43;123.03;;;51.70;;
23722;SDS011;12042;52.136;5.584;2023-03-08T06:47:09;121.88;;;53.17;;
23722;SDS011;12042;52.136;5.584;2023-03-08T06:49:34;119.70;;;52.75;;
23722;SDS011;12042;52.136;5.584;2023-03-08T06:52:00;133.43;;;52.85;;
23722;SDS011;12042;52.136;5.584;2023-03-08T06:54:26;127.70;;;54.33;;
23722;SDS011;12042;52.136;5.584;2023-03-08T06:56:51;143.32;;;55.22;;
23722;SDS011;12042;52.136;5.584;2023-03-08T06:59:17;124.85;;;54.50;;
23722;SDS011;12042;52.136;5.584;2023-03-08T07:01:42;127.63;;;54.78;;
23722;SDS011;12042;52.136;5.584;2023-03-08T07:04:08;125.47;;;54.70;;
23722;SDS011;12042;52.136;5.584;2023-03-08T07:06:33;124.45;;;55.25;;
23722;SDS011;12042;52.136;5.584;2023-03-08T07:08:59;135.18;;;57.92;;
23722;SDS011;12042;52.136;5.584;2023-03-08T07:11:25;141.93;;;56.30;;
23722;SDS011;12042;52.136;5.584;2023-03-08T07:13:51;136.95;;;55.25;;
23722;SDS011;12042;52.136;5.584;2023-03-08T07:16:17;130.50;;;55.35;;
23722;SDS011;12042;52.136;5.584;2023-03-08T07:18:42;129.77;;;54.75;;
23722;SDS011;12042;52.136;5.584;2023-03-08T07:21:08;137.38;;;56.90;;
23722;SDS011;12042;52.136;5.584;2023-03-08T07:23:34;138.18;;;56.38;;
23722;SDS011;12042;52.136;5.584;2023-03-08T07:26:04;136.73;;;57.03;;
23722;SDS011;12042;52.136;5.584;2023-03-08T07:28:31;143.85;;;57.95;;
23722;SDS011;12042;52.136;5.584;2023-03-08T07:30:56;133.63;;;57.75;;
23722;SDS011;12042;52.136;5.584;2023-03-08T07:33:22;142.02;;;57.95;;
23722;SDS011;12042;52.136;5.584;2023-03-08T07:35:48;140.95;;;58.65;;
23722;SDS011;12042;52.136;5.584;2023-03-08T07:38:13;137.20;;;55.67;;
23722;SDS011;12042;52.136;5.584;2023-03-08T07:40:39;134.77;;;55.85;;
23722;SDS011;12042;52.136;5.584;2023-03-08T07:43:05;140.15;;;56.20;;
23722;SDS011;12042;52.136;5.584;2023-03-08T07:45:31;149.55;;;59.20;;
23722;SDS011;12042;52.136;5.584;2023-03-08T07:48:03;132.70;;;55.17;;
23722;SDS011;12042;52.136;5.584;2023-03-08T07:50:28;136.80;;;56.42;;
23722;SDS011;12042;52.136;5.584;2023-03-08T07:52:54;134.88;;;54.67;;
23722;SDS011;12042;52.136;5.584;2023-03-08T07:55:20;121.97;;;50.33;;
23722;SDS011;12042;52.136;5.584;2023-03-08T07:57:46;123.63;;;52.08;;
23722;SDS011;12042;52.136;5.584;2023-03-08T08:00:11;121.60;;;50.85;;
23722;SDS011;12042;52.136;5.584;2023-03-08T08:02:37;124.82;;;52.10;;
23722;SDS011;12042;52.136;5.584;2023-03-08T08:05:03;135.30;;;54.67;;
23722;SDS011;12042;52.136;5.584;2023-03-08T08:07:30;134.23;;;51.80;;
23722;SDS011;12042;52.136;5.584;2023-03-08T08:09:55;140.48;;;54.90;;
23722;SDS011;12042;52.136;5.584;2023-03-08T08:12:21;142.77;;;55.15;;
23722;SDS011;12042;52.136;5.584;2023-03-08T08:14:51;149.20;;;56.10;;
23722;SDS011;12042;52.136;5.584;2023-03-08T08:17:18;146.70;;;54.40;;
23722;SDS011;12042;52.136;5.584;2023-03-08T08:19:44;140.82;;;55.33;;
23722;SDS011;12042;52.136;5.584;2023-03-08T08:22:09;137.60;;;54.30;;
23722;SDS011;12042;52.136;5.584;2023-03-08T08:24:35;146.05;;;54.38;;
23722;SDS011;12042;52.136;5.584;2023-03-08T08:27:00;149.27;;;54.40;;
23722;SDS011;12042;52.136;5.584;2023-03-08T08:29:26;134.60;;;52.55;;
23722;SDS011;12042;52.136;5.584;2023-03-08T08:31:52;135.32;;;52.42;;
23722;SDS011;12042;52.136;5.584;2023-03-08T08:34:18;131.05;;;52.17;;
23722;SDS011;12042;52.136;5.584;2023-03-08T08:36:44;128.93;;;52.42;;
23722;SDS011;12042;52.136;5.584;2023-03-08T08:39:10;135.95;;;51.50;;
23722;SDS011;12042;52.136;5.584;2023-03-08T08:41:36;134.00;;;51.47;;
23722;SDS011;12042;52.136;5.584;2023-03-08T08:44:02;124.93;;;49.00;;
23722;SDS011;12042;52.136;5.584;2023-03-08T08:46:28;120.55;;;47.75;;
23722;SDS011;12042;52.136;5.584;2023-03-08T08:48:55;111.03;;;45.28;;
23722;SDS011;12042;52.136;5.584;2023-03-08T08:51:22;111.95;;;44.30;;
23722;SDS011;12042;52.136;5.584;2023-03-08T08:53:48;112.47;;;44.22;;
23722;SDS011;12042;52.136;5.584;2023-03-08T08:58:47;108.93;;;42.88;;
23722;SDS011;12042;52.136;5.584;2023-03-08T09:01:17;102.15;;;42.13;;
23722;SDS011;12042;52.136;5.584;2023-03-08T09:03:44;102.95;;;41.22;;
23722;SDS011;12042;52.136;5.584;2023-03-08T09:06:11;100.90;;;41.53;;
23722;SDS011;12042;52.136;5.584;2023-03-08T09:08:37;101.60;;;41.03;;
23722;SDS011;12042;52.136;5.584;2023-03-08T09:11:04;104.43;;;43.65;;
23722;SDS011;12042;52.136;5.584;2023-03-08T09:13:38;107.63;;;44.17;;
23722;SDS011;12042;52.136;5.584;2023-03-08T09:16:06;108.95;;;42.28;;
23722;SDS011;12042;52.136;5.584;2023-03-08T09:18:49;101.45;;;41.55;;
23722;SDS011;12042;52.136;5.584;2023-03-08T09:21:20;105.00;;;42.70;;
23722;SDS011;12042;52.136;5.584;2023-03-08T09:23:52;103.45;;;41.22;;
23722;SDS011;12042;52.136;5.584;2023-03-08T09:26:21;101.35;;;42.22;;
23722;SDS011;12042;52.136;5.584;2023-03-08T09:29:21;100.95;;;41.63;;
23722;SDS011;12042;52.136;5.584;2023-03-08T09:31:51;100.05;;;40.72;;
23722;SDS011;12042;52.136;5.584;2023-03-08T09:34:17;94.82;;;42.22;;
23722;SDS011;12042;52.136;5.584;2023-03-08T09:36:43;99.07;;;41.30;;
23722;SDS011;12042;52.136;5.584;2023-03-08T09:39:11;98.32;;;41.72;;
23722;SDS011;12042;52.136;5.584;2023-03-08T09:41:45;98.95;;;39.33;;
23722;SDS011;12042;52.136;5.584;2023-03-08T09:49:57;90.10;;;38.42;;
23722;SDS011;12042;52.136;5.584;2023-03-08T09:52:31;97.18;;;40.55;;
23722;SDS011;12042;52.136;5.584;2023-03-08T09:57:52;103.22;;;41.50;;
23722;SDS011;12042;52.136;5.584;2023-03-08T10:00:22;101.60;;;39.10;;
23722;SDS011;12042;52.136;5.584;2023-03-08T10:08:58;98.85;;;37.38;;
23722;SDS011;12042;52.136;5.584;2023-03-08T10:14:11;95.80;;;38.10;;
23722;SDS011;12042;52.136;5.584;2023-03-08T10:16:45;93.30;;;33.90;;
23722;SDS011;12042;52.136;5.584;2023-03-08T10:21:44;94.40;;;37.05;;
23722;SDS011;12042;52.136;5.584;2023-03-08T10:24:13;81.28;;;33.80;;
23722;SDS011;12042;52.136;5.584;2023-03-08T10:26:51;87.03;;;33.55;;
23722;SDS011;12042;52.136;5.584;2023-03-08T10:29:18;80.80;;;32.08;;
23722;SDS011;12042;52.136;5.584;2023-03-08T10:31:45;83.95;;;35.17;;
23722;SDS011;12042;52.136;5.584;2023-03-08T10:34:16;76.07;;;32.47;;
23722;SDS011;12042;52.136;5.584;2023-03-08T10:36:56;81.60;;;32.70;;
23722;SDS011;12042;52.136;5.584;2023-03-08T10:39:24;80.82;;;31.13;;
23722;SDS011;12042;52.136;5.584;2023-03-08T10:42:01;72.47;;;31.80;;
23722;SDS011;12042;52.136;5.584;2023-03-08T10:44:39;72.53;;;30.25;;
23722;SDS011;12042;52.136;5.584;2023-03-08T10:47:20;68.45;;;29.50;;
23722;SDS011;12042;52.136;5.584;2023-03-08T10:49:48;68.10;;;29.02;;
23722;SDS011;12042;52.136;5.584;2023-03-08T10:52:25;65.43;;;27.23;;
23722;SDS011;12042;52.136;5.584;2023-03-08T10:55:02;62.13;;;26.65;;
23722;SDS011;12042;52.136;5.584;2023-03-08T10:57:29;60.53;;;26.27;;
23722;SDS011;12042;52.136;5.584;2023-03-08T10:59:56;58.70;;;25.13;;
23722;SDS011;12042;52.136;5.584;2023-03-08T11:02:26;62.15;;;26.65;;
23722;SDS011;12042;52.136;5.584;2023-03-08T11:04:56;59.97;;;26.52;;
23722;SDS011;12042;52.136;5.584;2023-03-08T11:07:27;58.17;;;24.63;;
23722;SDS011;12042;52.136;5.584;2023-03-08T11:10:03;53.85;;;24.85;;
23722;SDS011;12042;52.136;5.584;2023-03-08T11:12:40;52.15;;;22.90;;
23722;SDS011;12042;52.136;5.584;2023-03-08T11:15:12;52.72;;;24.20;;
23722;SDS011;12042;52.136;5.584;2023-03-08T11:17:39;51.00;;;21.65;;
23722;SDS011;12042;52.136;5.584;2023-03-08T11:20:23;47.67;;;21.63;;
23722;SDS011;12042;52.136;5.584;2023-03-08T11:28:19;54.63;;;24.83;;
23722;SDS011;12042;52.136;5.584;2023-03-08T11:39:45;50.55;;;22.25;;
23722;SDS011;12042;52.136;5.584;2023-03-08T11:42:32;52.03;;;23.17;;
23722;SDS011;12042;52.136;5.584;2023-03-08T11:53:45;45.78;;;21.70;;
23722;SDS011;12042;52.136;5.584;2023-03-08T12:02:13;51.50;;;24.25;;
23722;SDS011;12042;52.136;5.584;2023-03-08T12:07:33;53.90;;;21.23;;
23722;SDS011;12042;52.136;5.584;2023-03-08T12:10:17;49.35;;;21.83;;
23722;SDS011;12042;52.136;5.584;2023-03-08T12:12:47;46.17;;;22.42;;
23722;SDS011;12042;52.136;5.584;2023-03-08T12:15:23;48.45;;;22.40;;
23722;SDS011;12042;52.136;5.584;2023-03-08T12:20:41;46.28;;;21.90;;
23722;SDS011;12042;52.136;5.584;2023-03-08T12:26:09;49.60;;;21.85;;
23722;SDS011;12042;52.136;5.584;2023-03-08T12:29:17;39.85;;;21.23;;
23722;SDS011;12042;52.136;5.584;2023-03-08T12:31:42;43.17;;;21.10;;
23722;SDS011;12042;52.136;5.584;2023-03-08T12:34:11;42.85;;;20.00;;
23722;SDS011;12042;52.136;5.584;2023-03-08T12:36:53;38.22;;;18.60;;
23722;SDS011;12042;52.136;5.584;2023-03-08T12:39:29;39.20;;;20.00;;
23722;SDS011;12042;52.136;5.584;2023-03-08T12:41:57;39.72;;;19.95;;
23722;SDS011;12042;52.136;5.584;2023-03-08T12:44:36;35.85;;;19.15;;
23722;SDS011;12042;52.136;5.584;2023-03-08T12:49:40;37.92;;;19.08;;
23722;SDS011;12042;52.136;5.584;2023-03-08T12:55:00;36.47;;;18.63;;
23722;SDS011;12042;52.136;5.584;2023-03-08T12:57:45;37.90;;;20.20;;
23722;SDS011;12042;52.136;5.584;2023-03-08T13:02:44;41.95;;;21.10;;
23722;SDS011;12042;52.136;5.584;2023-03-08T13:05:28;40.95;;;22.10;;
23722;SDS011;12042;52.136;5.584;2023-03-08T13:15:36;39.35;;;21.73;;
23722;SDS011;12042;52.136;5.584;2023-03-08T13:18:11;42.78;;;21.48;;
23722;SDS011;12042;52.136;5.584;2023-03-08T13:20:52;40.60;;;21.15;;
23722;SDS011;12042;52.136;5.584;2023-03-08T13:23:52;42.08;;;21.83;;
23722;SDS011;12042;52.136;5.584;2023-03-08T13:29:14;41.17;;;21.88;;
23722;SDS011;12042;52.136;5.584;2023-03-08T13:31:42;45.97;;;22.67;;
23722;SDS011;12042;52.136;5.584;2023-03-08T13:34:22;40.55;;;20.73;;
23722;SDS011;12042;52.136;5.584;2023-03-08T13:36:52;41.92;;;21.30;;
23722;SDS011;12042;52.136;5.584;2023-03-08T13:39:21;41.03;;;21.00;;
23722;SDS011;12042;52.136;5.584;2023-03-08T13:41:49;44.10;;;21.98;;
23722;SDS011;12042;52.136;5.584;2023-03-08T13:44:16;41.13;;;21.58;;
23722;SDS011;12042;52.136;5.584;2023-03-08T13:46:42;42.40;;;20.98;;
23722;SDS011;12042;52.136;5.584;2023-03-08T13:49:11;42.28;;;21.05;;
23722;SDS011;12042;52.136;5.584;2023-03-08T13:51:43;44.30;;;21.65;;
23722;SDS011;12042;52.136;5.584;2023-03-08T13:54:13;38.92;;;20.33;;
23722;SDS011;12042;52.136;5.584;2023-03-08T13:56:41;42.22;;;22.27;;
23722;SDS011;12042;52.136;5.584;2023-03-08T13:59:19;41.03;;;21.25;;
23722;SDS011;12042;52.136;5.584;2023-03-08T14:01:49;40.17;;;21.55;;
23722;SDS011;12042;52.136;5.584;2023-03-08T14:04:25;43.70;;;23.65;;
23722;SDS011;12042;52.136;5.584;2023-03-08T14:06:54;46.30;;;23.73;;
23722;SDS011;12042;52.136;5.584;2023-03-08T14:09:25;47.83;;;22.27;;
23722;SDS011;12042;52.136;5.584;2023-03-08T14:11:55;49.85;;;23.52;;
23722;SDS011;12042;52.136;5.584;2023-03-08T14:14:30;45.42;;;23.58;;
23722;SDS011;12042;52.136;5.584;2023-03-08T14:16:57;45.63;;;22.40;;
23722;SDS011;12042;52.136;5.584;2023-03-08T14:21:57;41.08;;;21.88;;
23722;SDS011;12042;52.136;5.584;2023-03-08T14:24:33;46.28;;;22.88;;
23722;SDS011;12042;52.136;5.584;2023-03-08T14:27:04;42.05;;;20.65;;
23722;SDS011;12042;52.136;5.584;2023-03-08T14:29:48;41.78;;;21.00;;
23722;SDS011;12042;52.136;5.584;2023-03-08T14:32:30;42.78;;;21.55;;
23722;SDS011;12042;52.136;5.584;2023-03-08T14:35:04;40.60;;;19.20;;
23722;SDS011;12042;52.136;5.584;2023-03-08T14:37:33;43.58;;;20.27;;
23722;SDS011;12042;52.136;5.584;2023-03-08T14:42:49;34.42;;;18.05;;
23722;SDS011;12042;52.136;5.584;2023-03-08T14:45:22;36.50;;;17.98;;
23722;SDS011;12042;52.136;5.584;2023-03-08T14:48:27;36.53;;;17.33;;
23722;SDS011;12042;52.136;5.584;2023-03-08T14:50:55;34.67;;;15.85;;
23722;SDS011;12042;52.136;5.584;2023-03-08T14:53:24;30.77;;;17.05;;
23722;SDS011;12042;52.136;5.584;2023-03-08T14:55:56;27.75;;;14.60;;
23722;SDS011;12042;52.136;5.584;2023-03-08T14:58:31;30.77;;;15.43;;
23722;SDS011;12042;52.136;5.584;2023-03-08T15:00:59;29.85;;;14.57;;
23722;SDS011;12042;52.136;5.584;2023-03-08T15:03:26;28.45;;;14.23;;
23722;SDS011;12042;52.136;5.584;2023-03-08T15:05:53;22.58;;;12.80;;
23722;SDS011;12042;52.136;5.584;2023-03-08T15:08:20;22.58;;;12.90;;
23722;SDS011;12042;52.136;5.584;2023-03-08T15:10:46;19.05;;;11.30;;
23722;SDS011;12042;52.136;5.584;2023-03-08T15:13:14;23.30;;;13.43;;
23722;SDS011;12042;52.136;5.584;2023-03-08T15:15:41;19.85;;;11.70;;
23722;SDS011;12042;52.136;5.584;2023-03-08T15:18:07;27.80;;;13.15;;
23722;SDS011;12042;52.136;5.584;2023-03-08T15:20:32;26.23;;;14.80;;
23722;SDS011;12042;52.136;5.584;2023-03-08T15:23:02;23.67;;;14.27;;
23722;SDS011;12042;52.136;5.584;2023-03-08T15:25:31;24.77;;;13.15;;
23722;SDS011;12042;52.136;5.584;2023-03-08T15:27:59;23.60;;;14.52;;
23722;SDS011;12042;52.136;5.584;2023-03-08T15:30:26;27.13;;;14.95;;
23722;SDS011;12042;52.136;5.584;2023-03-08T15:32:53;29.80;;;15.50;;
23722;SDS011;12042;52.136;5.584;2023-03-08T15:35:19;24.67;;;14.13;;
23722;SDS011;12042;52.136;5.584;2023-03-08T15:37:45;22.95;;;14.43;;
23722;SDS011;12042;52.136;5.584;2023-03-08T15:40:14;23.80;;;14.23;;
23722;SDS011;12042;52.136;5.584;2023-03-08T15:42:41;23.70;;;13.80;;
23722;SDS011;12042;52.136;5.584;2023-03-08T15:45:08;23.98;;;13.63;;
23722;SDS011;12042;52.136;5.584;2023-03-08T15:47:34;29.42;;;14.70;;
23722;SDS011;12042;52.136;5.584;2023-03-08T15:50:00;25.63;;;14.63;;
23722;SDS011;12042;52.136;5.584;2023-03-08T15:52:27;29.35;;;14.88;;
23722;SDS011;12042;52.136;5.584;2023-03-08T15:54:53;25.65;;;14.50;;
23722;SDS011;12042;52.136;5.584;2023-03-08T15:57:19;25.13;;;14.82;;
23722;SDS011;12042;52.136;5.584;2023-03-08T15:59:44;27.88;;;15.38;;
23722;SDS011;12042;52.136;5.584;2023-03-08T16:02:14;29.90;;;16.27;;
23722;SDS011;12042;52.136;5.584;2023-03-08T16:04:44;26.42;;;15.73;;
23722;SDS011;12042;52.136;5.584;2023-03-08T16:07:11;32.30;;;16.42;;
23722;SDS011;12042;52.136;5.584;2023-03-08T16:09:41;32.42;;;16.83;;
23722;SDS011;12042;52.136;5.584;2023-03-08T16:12:07;29.73;;;17.63;;
23722;SDS011;12042;52.136;5.584;2023-03-08T16:14:33;34.28;;;18.98;;
23722;SDS011;12042;52.136;5.584;2023-03-08T16:16:59;34.95;;;18.48;;
23722;SDS011;12042;52.136;5.584;2023-03-08T16:19:25;38.35;;;18.80;;
23722;SDS011;12042;52.136;5.584;2023-03-08T16:21:55;40.75;;;20.83;;
23722;SDS011;12042;52.136;5.584;2023-03-08T16:24:21;36.25;;;19.70;;
23722;SDS011;12042;52.136;5.584;2023-03-08T16:26:47;37.22;;;20.50;;
23722;SDS011;12042;52.136;5.584;2023-03-08T16:29:13;37.80;;;20.40;;
23722;SDS011;12042;52.136;5.584;2023-03-08T16:31:39;36.50;;;20.55;;
23722;SDS011;12042;52.136;5.584;2023-03-08T16:34:05;38.60;;;19.85;;
23722;SDS011;12042;52.136;5.584;2023-03-08T16:36:31;35.80;;;19.25;;
23722;SDS011;12042;52.136;5.584;2023-03-08T16:38:58;39.58;;;20.90;;
23722;SDS011;12042;52.136;5.584;2023-03-08T16:41:24;37.63;;;18.85;;
23722;SDS011;12042;52.136;5.584;2023-03-08T16:43:50;40.05;;;21.95;;
23722;SDS011;12042;52.136;5.584;2023-03-08T16:46:19;40.00;;;21.08;;
23722;SDS011;12042;52.136;5.584;2023-03-08T16:48:47;40.63;;;21.30;;
23722;SDS011;12042;52.136;5.584;2023-03-08T16:51:14;43.63;;;22.05;;
23722;SDS011;12042;52.136;5.584;2023-03-08T16:53:42;39.03;;;21.15;;
23722;SDS011;12042;52.136;5.584;2023-03-08T16:56:08;41.95;;;21.63;;
23722;SDS011;12042;52.136;5.584;2023-03-08T16:58:40;42.17;;;22.67;;
23722;SDS011;12042;52.136;5.584;2023-03-08T17:01:10;46.53;;;23.25;;
23722;SDS011;12042;52.136;5.584;2023-03-08T17:03:36;44.95;;;22.52;;
23722;SDS011;12042;52.136;5.584;2023-03-08T17:06:03;42.13;;;21.33;;
23722;SDS011;12042;52.136;5.584;2023-03-08T17:08:34;46.40;;;23.05;;
23722;SDS011;12042;52.136;5.584;2023-03-08T17:11:00;46.85;;;23.00;;
23722;SDS011;12042;52.136;5.584;2023-03-08T17:13:27;49.15;;;24.55;;
23722;SDS011;12042;52.136;5.584;2023-03-08T17:15:54;47.50;;;24.05;;
23722;SDS011;12042;52.136;5.584;2023-03-08T17:18:20;46.83;;;24.20;;
23722;SDS011;12042;52.136;5.584;2023-03-08T17:20:48;51.28;;;25.10;;
23722;SDS011;12042;52.136;5.584;2023-03-08T17:23:15;48.22;;;24.85;;
23722;SDS011;12042;52.136;5.584;2023-03-08T17:25:41;50.05;;;24.38;;
23722;SDS011;12042;52.136;5.584;2023-03-08T17:28:07;47.22;;;24.92;;
23722;SDS011;12042;52.136;5.584;2023-03-08T17:30:34;50.70;;;24.95;;
23722;SDS011;12042;52.136;5.584;2023-03-08T17:33:02;49.22;;;23.60;;
23722;SDS011;12042;52.136;5.584;2023-03-08T17:35:28;53.45;;;26.08;;
23722;SDS011;12042;52.136;5.584;2023-03-08T17:37:53;52.20;;;25.63;;
23722;SDS011;12042;52.136;5.584;2023-03-08T17:40:19;47.83;;;23.75;;
23722;SDS011;12042;52.136;5.584;2023-03-08T17:42:45;55.63;;;25.20;;
23722;SDS011;12042;52.136;5.584;2023-03-08T17:45:14;52.20;;;24.00;;
23722;SDS011;12042;52.136;5.584;2023-03-08T17:47:40;52.28;;;24.65;;
23722;SDS011;12042;52.136;5.584;2023-03-08T17:50:06;53.83;;;26.13;;
23722;SDS011;12042;52.136;5.584;2023-03-08T17:52:34;54.67;;;25.60;;
23722;SDS011;12042;52.136;5.584;2023-03-08T17:54:59;52.45;;;25.80;;
23722;SDS011;12042;52.136;5.584;2023-03-08T17:57:25;54.35;;;25.08;;
23722;SDS011;12042;52.136;5.584;2023-03-08T17:59:51;51.97;;;24.80;;
23722;SDS011;12042;52.136;5.584;2023-03-08T18:02:18;61.35;;;27.98;;
23722;SDS011;12042;52.136;5.584;2023-03-08T18:04:45;61.00;;;28.33;;
23722;SDS011;12042;52.136;5.584;2023-03-08T18:07:12;58.38;;;27.73;;
23722;SDS011;12042;52.136;5.584;2023-03-08T18:09:39;59.35;;;27.88;;
23722;SDS011;12042;52.136;5.584;2023-03-08T18:12:05;60.80;;;28.83;;
23722;SDS011;12042;52.136;5.584;2023-03-08T18:14:36;60.88;;;28.38;;
23722;SDS011;12042;52.136;5.584;2023-03-08T18:17:04;63.63;;;30.45;;
23722;SDS011;12042;52.136;5.584;2023-03-08T18:19:32;60.03;;;28.92;;
23722;SDS011;12042;52.136;5.584;2023-03-08T18:21:57;58.88;;;28.35;;
23722;SDS011;12042;52.136;5.584;2023-03-08T18:24:23;62.80;;;27.73;;
23722;SDS011;12042;52.136;5.584;2023-03-08T18:26:50;54.03;;;26.45;;
23722;SDS011;12042;52.136;5.584;2023-03-08T18:29:17;58.13;;;26.92;;
23722;SDS011;12042;52.136;5.584;2023-03-08T18:31:44;56.10;;;26.92;;
23722;SDS011;12042;52.136;5.584;2023-03-08T18:34:10;50.42;;;25.00;;
23722;SDS011;12042;52.136;5.584;2023-03-08T18:36:36;49.40;;;24.25;;
23722;SDS011;12042;52.136;5.584;2023-03-08T18:39:03;43.53;;;22.67;;
23722;SDS011;12042;52.136;5.584;2023-03-08T18:41:30;43.35;;;22.08;;
23722;SDS011;12042;52.136;5.584;2023-03-08T18:43:57;49.63;;;23.92;;
23722;SDS011;12042;52.136;5.584;2023-03-08T18:46:24;42.10;;;22.27;;
23722;SDS011;12042;52.136;5.584;2023-03-08T18:48:55;44.00;;;23.42;;
23722;SDS011;12042;52.136;5.584;2023-03-08T18:51:25;45.67;;;23.55;;
23722;SDS011;12042;52.136;5.584;2023-03-08T18:53:52;49.15;;;23.65;;
23722;SDS011;12042;52.136;5.584;2023-03-08T18:56:18;48.72;;;24.45;;
23722;SDS011;12042;52.136;5.584;2023-03-08T18:58:44;46.03;;;24.02;;
23722;SDS011;12042;52.136;5.584;2023-03-08T19:01:14;47.97;;;24.33;;
23722;SDS011;12042;52.136;5.584;2023-03-08T19:03:40;42.35;;;21.75;;
23722;SDS011;12042;52.136;5.584;2023-03-08T19:06:07;37.83;;;19.52;;
23722;SDS011;12042;52.136;5.584;2023-03-08T19:08:33;39.60;;;21.52;;
23722;SDS011;12042;52.136;5.584;2023-03-08T19:11:02;46.20;;;22.67;;
23722;SDS011;12042;52.136;5.584;2023-03-08T19:13:34;36.13;;;20.38;;
23722;SDS011;12042;52.136;5.584;2023-03-08T19:16:00;34.28;;;19.55;;
23722;SDS011;12042;52.136;5.584;2023-03-08T19:18:25;36.90;;;19.50;;
23722;SDS011;12042;52.136;5.584;2023-03-08T19:20:51;38.97;;;20.30;;
23722;SDS011;12042;52.136;5.584;2023-03-08T19:23:16;36.38;;;19.90;;
23722;SDS011;12042;52.136;5.584;2023-03-08T19:25:42;35.08;;;18.80;;
23722;SDS011;12042;52.136;5.584;2023-03-08T19:28:26;32.67;;;18.50;;
23722;SDS011;12042;52.136;5.584;2023-03-08T19:30:54;34.40;;;19.52;;
23722;SDS011;12042;52.136;5.584;2023-03-08T19:33:20;30.45;;;16.75;;
23722;SDS011;12042;52.136;5.584;2023-03-08T19:35:45;31.33;;;18.48;;
23722;SDS011;12042;52.136;5.584;2023-03-08T19:38:11;32.45;;;18.58;;
23722;SDS011;12042;52.136;5.584;2023-03-08T19:40:36;32.15;;;19.40;;
23722;SDS011;12042;52.136;5.584;2023-03-08T19:43:02;35.22;;;20.35;;
23722;SDS011;12042;52.136;5.584;2023-03-08T19:45:28;35.72;;;20.10;;
23722;SDS011;12042;52.136;5.584;2023-03-08T19:47:54;33.65;;;19.70;;
23722;SDS011;12042;52.136;5.584;2023-03-08T19:50:19;31.67;;;18.13;;
23722;SDS011;12042;52.136;5.584;2023-03-08T19:52:46;31.67;;;17.83;;
23722;SDS011;12042;52.136;5.584;2023-03-08T19:55:11;32.53;;;17.77;;
23722;SDS011;12042;52.136;5.584;2023-03-08T19:57:37;27.00;;;14.68;;
23722;SDS011;12042;52.136;5.584;2023-03-08T20:00:03;25.00;;;15.13;;
23722;SDS011;12042;52.136;5.584;2023-03-08T20:02:30;25.65;;;14.90;;
23722;SDS011;12042;52.136;5.584;2023-03-08T20:04:55;29.35;;;17.02;;
23722;SDS011;12042;52.136;5.584;2023-03-08T20:07:21;27.33;;;15.52;;
23722;SDS011;12042;52.136;5.584;2023-03-08T20:09:50;27.23;;;16.15;;
23722;SDS011;12042;52.136;5.584;2023-03-08T20:12:16;30.60;;;17.85;;
23722;SDS011;12042;52.136;5.584;2023-03-08T20:14:41;31.05;;;18.15;;
23722;SDS011;12042;52.136;5.584;2023-03-08T20:17:07;30.90;;;18.52;;
23722;SDS011;12042;52.136;5.584;2023-03-08T20:19:33;30.02;;;17.75;;
23722;SDS011;12042;52.136;5.584;2023-03-08T20:21:59;32.95;;;17.60;;
23722;SDS011;12042;52.136;5.584;2023-03-08T20:24:25;31.05;;;17.73;;
23722;SDS011;12042;52.136;5.584;2023-03-08T20:26:51;35.13;;;19.45;;
23722;SDS011;12042;52.136;5.584;2023-03-08T20:29:17;31.00;;;18.25;;
23722;SDS011;12042;52.136;5.584;2023-03-08T20:31:43;29.00;;;16.55;;
23722;SDS011;12042;52.136;5.584;2023-03-08T20:34:11;27.98;;;17.35;;
23722;SDS011;12042;52.136;5.584;2023-03-08T20:36:37;26.88;;;16.45;;
23722;SDS011;12042;52.136;5.584;2023-03-08T20:39:03;27.70;;;16.38;;
23722;SDS011;12042;52.136;5.584;2023-03-08T20:41:29;25.00;;;16.15;;
23722;SDS011;12042;52.136;5.584;2023-03-08T20:43:54;32.03;;;17.95;;
23722;SDS011;12042;52.136;5.584;2023-03-08T20:46:23;29.67;;;17.67;;
23722;SDS011;12042;52.136;5.584;2023-03-08T20:48:51;31.27;;;18.25;;
23722;SDS011;12042;52.136;5.584;2023-03-08T20:51:18;28.73;;;17.48;;
23722;SDS011;12042;52.136;5.584;2023-03-08T20:53:48;34.65;;;20.05;;
23722;SDS011;12042;52.136;5.584;2023-03-08T20:56:16;35.92;;;20.00;;
23722;SDS011;12042;52.136;5.584;2023-03-08T20:58:43;33.05;;;19.27;;
23722;SDS011;12042;52.136;5.584;2023-03-08T21:01:16;37.72;;;20.65;;
23722;SDS011;12042;52.136;5.584;2023-03-08T21:03:49;40.65;;;21.83;;
23722;SDS011;12042;52.136;5.584;2023-03-08T21:06:16;40.17;;;21.50;;
23722;SDS011;12042;52.136;5.584;2023-03-08T21:08:45;38.20;;;20.95;;
23722;SDS011;12042;52.136;5.584;2023-03-08T21:11:11;39.15;;;21.77;;
23722;SDS011;12042;52.136;5.584;2023-03-08T21:13:36;35.15;;;20.75;;
23722;SDS011;12042;52.136;5.584;2023-03-08T21:16:03;37.33;;;20.67;;
23722;SDS011;12042;52.136;5.584;2023-03-08T21:18:30;35.20;;;20.33;;
23722;SDS011;12042;52.136;5.584;2023-03-08T21:20:56;40.08;;;20.92;;
23722;SDS011;12042;52.136;5.584;2023-03-08T21:23:22;39.35;;;21.60;;
23722;SDS011;12042;52.136;5.584;2023-03-08T21:25:49;35.45;;;20.33;;
23722;SDS011;12042;52.136;5.584;2023-03-08T21:28:15;40.63;;;21.00;;
23722;SDS011;12042;52.136;5.584;2023-03-08T21:30:41;34.47;;;20.63;;
23722;SDS011;12042;52.136;5.584;2023-03-08T21:33:06;35.13;;;20.33;;
23722;SDS011;12042;52.136;5.584;2023-03-08T21:35:36;35.90;;;20.63;;
23722;SDS011;12042;52.136;5.584;2023-03-08T21:38:05;38.95;;;19.77;;
23722;SDS011;12042;52.136;5.584;2023-03-08T21:40:35;35.28;;;19.58;;
23722;SDS011;12042;52.136;5.584;2023-03-08T21:43:02;34.33;;;19.17;;
23722;SDS011;12042;52.136;5.584;2023-03-08T21:45:28;30.63;;;18.17;;
23722;SDS011;12042;52.136;5.584;2023-03-08T21:47:54;28.35;;;17.35;;
23722;SDS011;12042;52.136;5.584;2023-03-08T21:50:20;29.15;;;17.25;;
23722;SDS011;12042;52.136;5.584;2023-03-08T21:52:46;25.13;;;16.08;;
23722;SDS011;12042;52.136;5.584;2023-03-08T21:55:11;26.52;;;15.95;;
23722;SDS011;12042;52.136;5.584;2023-03-08T21:57:37;26.35;;;16.45;;
23722;SDS011;12042;52.136;5.584;2023-03-08T22:00:02;28.33;;;17.08;;
23722;SDS011;12042;52.136;5.584;2023-03-08T22:02:30;28.42;;;16.95;;
23722;SDS011;12042;52.136;5.584;2023-03-08T22:04:55;28.77;;;17.10;;
23722;SDS011;12042;52.136;5.584;2023-03-08T22:07:21;28.27;;;17.55;;
23722;SDS011;12042;52.136;5.584;2023-03-08T22:09:50;33.30;;;17.52;;
23722;SDS011;12042;52.136;5.584;2023-03-08T22:12:15;29.45;;;18.05;;
23722;SDS011;12042;52.136;5.584;2023-03-08T22:14:41;30.38;;;18.25;;
23722;SDS011;12042;52.136;5.584;2023-03-08T22:17:07;29.83;;;17.92;;
23722;SDS011;12042;52.136;5.584;2023-03-08T22:19:33;34.28;;;18.83;;
23722;SDS011;12042;52.136;5.584;2023-03-08T22:21:58;32.50;;;18.80;;
23722;SDS011;12042;52.136;5.584;2023-03-08T22:24:24;31.10;;;18.75;;
23722;SDS011;12042;52.136;5.584;2023-03-08T22:26:50;31.08;;;18.52;;
23722;SDS011;12042;52.136;5.584;2023-03-08T22:29:16;37.58;;;19.38;;
23722;SDS011;12042;52.136;5.584;2023-03-08T22:31:42;38.85;;;19.77;;
23722;SDS011;12042;52.136;5.584;2023-03-08T22:34:07;33.55;;;19.35;;